Kansas City, Missouri
Traffic Map
Current Weather Conditions
Kansas City, Missouri
Overcast Haze
Overcast

Feels Like: -2°
Wind Chill: -2° Ceiling: 600
Heat Index: Visibility: 6mi
Dew Point: Wind: 16mph
Humidity: 89% Direction: 200° (SSW)
Pressure: 29.77in Gusts: 25mph
Raw Report DataKMKC 031054Z 20014G22KT 6SM BR OVC006 03/01 A2977 RMK AO2 SLP085 T00280011
Traffic Incident Summary
Active as of:
Severity:
Category:
InformationThere was an issue retrieving the traffic information for this location. Please try a different location or try again shortly.
Advertisements
Track Severe Weather on mobile